Time;durP1;ratioP1;P1;durP2;ratioP2;P2;SDS_P1;SDS_P2;PMS_P1;PMS_P2;Temp;Humidity;BMP_temperature;BMP_pressure;BME280_temperature;BME280_humidity;BME280_pressure;Samples;Min_cycle;Max_cycle;Signal;HPM_P1;HPM_P2
2022/06/26 00:00:20;;;;;;;2.13;0.90;;;;;;;;;;5069703;28;20481;-71
2022/06/26 00:02:46;;;;;;;2.50;1.13;;;;;;;;;;5070143;28;20016;-70
2022/06/26 00:05:12;;;;;;;1.65;1.10;;;;;;;;;;5069869;28;20058;-71
2022/06/26 00:07:38;;;;;;;1.45;0.95;;;;;;;;;;5069637;28;20024;-71
2022/06/26 00:10:05;;;;;;;2.63;1.10;;;;;;;;;;5069584;28;20028;-71
2022/06/26 00:12:31;;;;;;;4.63;1.13;;;;;;;;;;5069992;28;20024;-71
2022/06/26 00:14:57;;;;;;;1.13;0.90;;;;;;;;;;5069625;28;20409;-70
2022/06/26 00:17:22;;;;;;;2.45;1.10;;;;;;;;;;5069864;28;20101;-71
2022/06/26 00:19:48;;;;;;;2.20;1.00;;;;;;;;;;5069321;28;20078;-71
2022/06/26 00:22:13;;;;;;;3.40;1.02;;;;;;;;;;5069515;28;20392;-71
2022/06/26 00:24:41;;;;;;;2.30;0.90;;;;;;;;;;5051707;28;20032;-71
2022/06/26 00:27:07;;;;;;;1.77;1.00;;;;;;;;;;5069996;28;20063;-71
2022/06/26 00:29:33;;;;;;;0.80;0.77;;;;;;;;;;5069825;28;20064;-71
2022/06/26 00:31:59;;;;;;;1.05;0.82;;;;;;;;;;5069591;28;20111;-71
2022/06/26 00:34:25;;;;;;;1.70;0.90;;;;;;;;;;5069560;28;20025;-72
2022/06/26 00:36:50;;;;;;;1.60;0.90;;;;;;;;;;5069244;28;20035;-71
2022/06/26 00:39:16;;;;;;;1.92;1.00;;;;;;;;;;5069525;28;20424;-71
2022/06/26 00:41:42;;;;;;;2.20;0.90;;;;;;;;;;5069462;28;20033;-72
2022/06/26 00:44:18;;;;;;;3.42;1.10;;;;;;;;;;5069873;28;20035;-72
2022/06/26 00:46:44;;;;;;;1.45;0.82;;;;;;;;;;5069619;28;20032;-71
2022/06/26 00:49:11;;;;;;;1.65;0.90;;;;;;;;;;5069443;28;20040;-71
2022/06/26 00:51:55;;;;;;;2.03;0.90;;;;;;;;;;5068843;28;20630;-71
2022/06/26 00:54:23;;;;;;;1.40;1.00;;;;;;;;;;5069450;28;20615;-71
2022/06/26 00:56:48;;;;;;;1.23;0.93;;;;;;;;;;5069115;28;20033;-72
2022/06/26 00:59:14;;;;;;;1.13;0.80;;;;;;;;;;5069516;28;20027;-72
2022/06/26 01:01:40;;;;;;;2.60;1.00;;;;;;;;;;5068999;28;20028;-71
2022/06/26 01:04:06;;;;;;;1.30;0.90;;;;;;;;;;5069591;28;20024;-72
2022/06/26 01:06:32;;;;;;;3.08;0.90;;;;;;;;;;5068927;28;20031;-71
2022/06/26 01:08:58;;;;;;;1.02;0.90;;;;;;;;;;5069598;28;20036;-72
2022/06/26 01:11:25;;;;;;;1.42;0.90;;;;;;;;;;5068961;28;20028;-72
2022/06/26 01:13:53;;;;;;;3.92;1.00;;;;;;;;;;5069025;28;20442;-71
2022/06/26 01:16:20;;;;;;;1.67;0.90;;;;;;;;;;5068762;28;20033;-72
2022/06/26 01:18:49;;;;;;;2.55;1.15;;;;;;;;;;5069086;28;20039;-70
2022/06/26 01:21:19;;;;;;;1.38;0.90;;;;;;;;;;5071046;28;20104;-71
2022/06/26 01:23:46;;;;;;;1.85;0.90;;;;;;;;;;5073313;28;20024;-71
2022/06/26 01:26:12;;;;;;;2.90;0.82;;;;;;;;;;5072827;28;20033;-71
2022/06/26 01:28:37;;;;;;;2.53;1.00;;;;;;;;;;5073124;28;20107;-72
2022/06/26 01:31:03;;;;;;;2.40;0.90;;;;;;;;;;5072461;28;20021;-71
2022/06/26 01:33:29;;;;;;;1.92;0.95;;;;;;;;;;5072942;28;20024;-71
2022/06/26 01:35:54;;;;;;;2.10;0.98;;;;;;;;;;5072230;28;20028;-71
2022/06/26 01:38:22;;;;;;;1.83;0.98;;;;;;;;;;5072962;28;20039;-72
2022/06/26 01:40:49;;;;;;;1.85;1.00;;;;;;;;;;5072702;28;20035;-71
2022/06/26 01:43:18;;;;;;;1.38;0.90;;;;;;;;;;5072758;28;20369;-72
2022/06/26 01:45:45;;;;;;;2.97;1.08;;;;;;;;;;5072559;28;20464;-71
2022/06/26 01:48:11;;;;;;;2.03;1.00;;;;;;;;;;5072504;28;20044;-71
2022/06/26 01:50:37;;;;;;;2.05;1.00;;;;;;;;;;5072268;28;20048;-71
2022/06/26 01:53:03;;;;;;;3.00;1.00;;;;;;;;;;5072216;28;20048;-71
2022/06/26 01:55:28;;;;;;;1.48;0.90;;;;;;;;;;5072240;28;20074;-71
2022/06/26 01:57:54;;;;;;;2.35;1.00;;;;;;;;;;5072342;28;20082;-71
2022/06/26 02:00:20;;;;;;;1.98;1.08;;;;;;;;;;5072339;28;20103;-73
2022/06/26 02:02:46;;;;;;;2.08;1.00;;;;;;;;;;5072241;28;20024;-72
2022/06/26 02:05:12;;;;;;;2.75;0.93;;;;;;;;;;5072346;28;20028;-71
2022/06/26 02:07:38;;;;;;;1.85;0.85;;;;;;;;;;5071882;28;20016;-71
2022/06/26 02:15:33;;;;;;;3.25;1.10;;;;;;;;;;5072405;28;20067;-71
2022/06/26 02:17:58;;;;;;;2.72;1.10;;;;;;;;;;5071948;28;20071;-71
2022/06/26 02:20:24;;;;;;;1.52;0.90;;;;;;;;;;5072123;28;20063;-72
2022/06/26 02:22:49;;;;;;;2.33;1.08;;;;;;;;;;5071473;28;20510;-71
2022/06/26 02:25:15;;;;;;;2.03;1.00;;;;;;;;;;5072130;28;20020;-71
2022/06/26 02:27:40;;;;;;;3.55;1.00;;;;;;;;;;5071635;28;20036;-71
2022/06/26 02:30:06;;;;;;;2.95;1.10;;;;;;;;;;5071865;28;20384;-71
2022/06/26 02:32:31;;;;;;;2.38;1.10;;;;;;;;;;5071436;28;20412;-71
2022/06/26 02:34:57;;;;;;;2.60;1.00;;;;;;;;;;5071548;28;20036;-71
2022/06/26 02:37:22;;;;;;;3.13;1.10;;;;;;;;;;5071139;28;20439;-72
2022/06/26 02:39:47;;;;;;;4.43;1.20;;;;;;;;;;5071723;28;20024;-70
2022/06/26 02:42:13;;;;;;;3.03;1.00;;;;;;;;;;5053378;28;20024;-70
2022/06/26 02:44:38;;;;;;;3.05;1.10;;;;;;;;;;5071764;28;20104;-69
2022/06/26 02:47:04;;;;;;;4.78;1.15;;;;;;;;;;5071453;28;20032;-71
2022/06/26 02:49:29;;;;;;;3.08;1.10;;;;;;;;;;5071363;28;20119;-72
2022/06/26 02:51:55;;;;;;;1.73;1.00;;;;;;;;;;5070552;28;20033;-70
2022/06/26 02:54:20;;;;;;;1.63;1.00;;;;;;;;;;5071458;28;20027;-70
2022/06/26 02:56:45;;;;;;;2.28;1.00;;;;;;;;;;5070971;28;20032;-69
2022/06/26 02:59:11;;;;;;;3.88;1.00;;;;;;;;;;5071351;28;20024;-71
2022/06/26 03:01:36;;;;;;;4.00;1.20;;;;;;;;;;5070938;28;20434;-69
2022/06/26 03:04:02;;;;;;;3.15;1.40;;;;;;;;;;5053345;28;20021;-69
2022/06/26 03:06:27;;;;;;;4.03;1.20;;;;;;;;;;5070458;28;20038;-73
2022/06/26 03:08:52;;;;;;;3.03;1.15;;;;;;;;;;5071166;28;20111;-70
2022/06/26 03:11:18;;;;;;;2.05;1.20;;;;;;;;;;5070601;28;20028;-70
2022/06/26 03:13:43;;;;;;;2.70;1.10;;;;;;;;;;5071083;28;20077;-69
2022/06/26 03:16:08;;;;;;;3.17;1.10;;;;;;;;;;5070820;28;20107;-71
2022/06/26 03:18:34;;;;;;;2.30;1.17;;;;;;;;;;5070900;28;20526;-70
2022/06/26 03:20:59;;;;;;;2.83;1.10;;;;;;;;;;5070489;28;20028;-69
2022/06/26 03:24:01;;;;;;;2.88;1.20;;;;;;;;;;5070524;28;20048;-69
2022/06/26 03:26:10;;;;;;;2.53;1.10;;;;;;;;;;5070347;28;20036;-69
2022/06/26 03:28:36;;;;;;;4.35;1.55;;;;;;;;;;5070251;28;20040;-70
2022/06/26 03:31:01;;;;;;;1.85;1.10;;;;;;;;;;5070464;28;20469;-69
2022/06/26 03:33:27;;;;;;;2.08;1.10;;;;;;;;;;5070333;28;20107;-70
2022/06/26 03:35:52;;;;;;;4.05;1.40;;;;;;;;;;5070323;28;20025;-71
2022/06/26 03:38:21;;;;;;;2.67;1.20;;;;;;;;;;5070368;28;20028;-71
2022/06/26 03:40:46;;;;;;;2.70;1.50;;;;;;;;;;5070642;28;20020;-70
2022/06/26 03:43:12;;;;;;;2.83;1.42;;;;;;;;;;5069367;28;20124;-69
2022/06/26 03:45:38;;;;;;;2.65;1.42;;;;;;;;;;5070300;28;20020;-69
2022/06/26 03:48:03;;;;;;;3.83;1.35;;;;;;;;;;5069862;28;20021;-70
2022/06/26 03:50:29;;;;;;;2.92;1.30;;;;;;;;;;5070319;28;20077;-70
2022/06/26 03:52:54;;;;;;;2.97;1.40;;;;;;;;;;5069545;28;20032;-72
2022/06/26 03:55:20;;;;;;;4.28;1.30;;;;;;;;;;5070296;28;20029;-71
2022/06/26 03:57:45;;;;;;;4.53;1.42;;;;;;;;;;5070141;28;20078;-72
2022/06/26 04:00:11;;;;;;;3.33;1.40;;;;;;;;;;5070137;28;20028;-70
2022/06/26 04:02:37;;;;;;;4.63;1.40;;;;;;;;;;5069640;28;20395;-73
2022/06/26 04:05:04;;;;;;;2.55;1.30;;;;;;;;;;5070168;28;20473;-72
2022/06/26 04:07:30;;;;;;;2.85;1.30;;;;;;;;;;5069430;28;20021;-73
2022/06/26 04:09:57;;;;;;;2.35;1.20;;;;;;;;;;5070029;28;20473;-73
2022/06/26 04:12:22;;;;;;;3.15;1.55;;;;;;;;;;5069667;28;20032;-71
2022/06/26 04:14:47;;;;;;;3.30;1.58;;;;;;;;;;5069919;28;20059;-72
2022/06/26 04:17:16;;;;;;;2.50;1.50;;;;;;;;;;5069642;28;20114;-73
2022/06/26 04:19:42;;;;;;;3.75;1.50;;;;;;;;;;5069920;28;20660;-72
2022/06/26 04:22:07;;;;;;;4.97;1.70;;;;;;;;;;5069172;28;20025;-71
2022/06/26 04:24:33;;;;;;;4.00;1.42;;;;;;;;;;5069775;28;20048;-72
2022/06/26 04:26:58;;;;;;;3.60;1.45;;;;;;;;;;5069746;28;20040;-72
2022/06/26 04:29:24;;;;;;;4.13;1.55;;;;;;;;;;5069822;28;20108;-73
2022/06/26 04:31:49;;;;;;;3.17;1.30;;;;;;;;;;5069457;28;20036;-71
2022/06/26 04:34:15;;;;;;;4.32;1.67;;;;;;;;;;5069693;28;20020;-72
2022/06/26 04:36:41;;;;;;;2.53;1.23;;;;;;;;;;5069657;28;20155;-72
2022/06/26 04:39:06;;;;;;;3.33;1.40;;;;;;;;;;5069378;28;20040;-73
2022/06/26 04:41:32;;;;;;;2.55;1.30;;;;;;;;;;5069593;28;20107;-72
2022/06/26 04:43:58;;;;;;;2.28;1.20;;;;;;;;;;5069351;28;20181;-72
2022/06/26 04:46:23;;;;;;;3.20;1.50;;;;;;;;;;5069587;28;20017;-72
2022/06/26 04:48:49;;;;;;;2.60;1.30;;;;;;;;;;5069223;28;20407;-72
2022/06/26 04:51:14;;;;;;;3.47;1.20;;;;;;;;;;5069324;28;20028;-71
2022/06/26 04:53:40;;;;;;;5.43;1.45;;;;;;;;;;5069293;28;20044;-71
2022/06/26 04:56:06;;;;;;;4.03;1.23;;;;;;;;;;5071955;28;20028;-72
2022/06/26 04:58:31;;;;;;;3.05;1.30;;;;;;;;;;5073194;28;20029;-72
2022/06/26 05:00:57;;;;;;;4.18;1.40;;;;;;;;;;5073616;28;20399;-73
2022/06/26 05:03:22;;;;;;;3.10;1.13;;;;;;;;;;5073110;28;20032;-74
2022/06/26 05:05:47;;;;;;;2.65;1.48;;;;;;;;;;5073110;28;20024;-72
2022/06/26 05:08:13;;;;;;;2.50;1.40;;;;;;;;;;5055321;28;20029;-71
2022/06/26 05:10:38;;;;;;;4.05;1.30;;;;;;;;;;5073537;28;20503;-71
2022/06/26 05:13:03;;;;;;;2.17;1.30;;;;;;;;;;5073017;28;20033;-71
2022/06/26 05:15:29;;;;;;;3.28;1.30;;;;;;;;;;5073373;28;20025;-71
2022/06/26 05:17:54;;;;;;;2.45;1.13;;;;;;;;;;5073010;28;20051;-72
2022/06/26 05:20:20;;;;;;;4.05;1.30;;;;;;;;;;5073177;28;20103;-71
2022/06/26 05:22:45;;;;;;;2.92;1.30;;;;;;;;;;5072524;28;20075;-72
2022/06/26 05:25:11;;;;;;;2.47;1.25;;;;;;;;;;5072990;28;20016;-71
2022/06/26 05:27:36;;;;;;;2.50;1.10;;;;;;;;;;5073464;28;20098;-72
2022/06/26 05:30:03;;;;;;;4.78;1.40;;;;;;;;;;5072867;28;20025;-71
2022/06/26 05:32:29;;;;;;;4.35;1.52;;;;;;;;;;5072708;28;20436;-72
2022/06/26 05:34:54;;;;;;;3.83;1.50;;;;;;;;;;5072798;28;20542;-72
2022/06/26 05:37:19;;;;;;;3.63;1.50;;;;;;;;;;5072562;28;20032;-72
2022/06/26 05:39:45;;;;;;;5.18;1.38;;;;;;;;;;5072648;28;20670;-71
2022/06/26 05:42:10;;;;;;;5.43;1.42;;;;;;;;;;5072451;28;20052;-71
2022/06/26 05:44:36;;;;;;;2.75;1.50;;;;;;;;;;5072334;28;20099;-71
2022/06/26 05:47:01;;;;;;;3.00;1.50;;;;;;;;;;5072739;28;20031;-71
2022/06/26 05:49:28;;;;;;;3.67;1.52;;;;;;;;;;5071690;28;20045;-71
2022/06/26 05:51:53;;;;;;;3.45;1.25;;;;;;;;;;5071049;28;20033;-71
2022/06/26 05:54:19;;;;;;;3.13;1.40;;;;;;;;;;5071238;28;20082;-71
2022/06/26 05:56:44;;;;;;;3.05;1.30;;;;;;;;;;5071363;28;20021;-71
2022/06/26 05:59:10;;;;;;;5.38;1.75;;;;;;;;;;5070839;28;20033;-71
2022/06/26 06:01:36;;;;;;;3.15;1.48;;;;;;;;;;5071150;28;20629;-71
2022/06/26 06:04:02;;;;;;;3.83;1.40;;;;;;;;;;5070802;28;20027;-72
2022/06/26 06:06:28;;;;;;;4.20;1.50;;;;;;;;;;5070518;28;20115;-72
2022/06/26 06:08:53;;;;;;;4.63;1.50;;;;;;;;;;5070947;28;20033;-71
2022/06/26 06:11:19;;;;;;;4.03;1.30;;;;;;;;;;5071309;28;20033;-72
2022/06/26 06:13:44;;;;;;;5.75;1.63;;;;;;;;;;5070670;28;20028;-72
2022/06/26 06:16:10;;;;;;;5.32;1.70;;;;;;;;;;5071025;28;20078;-71
2022/06/26 06:18:35;;;;;;;4.65;1.60;;;;;;;;;;5070675;28;20404;-72
2022/06/26 06:21:01;;;;;;;4.88;1.75;;;;;;;;;;5070479;28;20396;-71
2022/06/26 06:23:26;;;;;;;3.03;1.30;;;;;;;;;;5070604;28;20048;-71
2022/06/26 06:25:51;;;;;;;7.00;1.60;;;;;;;;;;5070851;28;20032;-72
2022/06/26 06:28:18;;;;;;;3.30;1.40;;;;;;;;;;5070857;28;20108;-72
2022/06/26 06:30:44;;;;;;;3.35;1.42;;;;;;;;;;5071083;28;20021;-73
2022/06/26 06:33:09;;;;;;;2.90;1.20;;;;;;;;;;5070598;28;20028;-71
2022/06/26 06:35:36;;;;;;;3.33;1.50;;;;;;;;;;5070574;28;20077;-72
2022/06/26 06:38:02;;;;;;;3.67;1.67;;;;;;;;;;5070585;28;20404;-72
2022/06/26 06:40:27;;;;;;;3.25;1.50;;;;;;;;;;5070531;28;20468;-71
2022/06/26 06:42:53;;;;;;;4.40;1.48;;;;;;;;;;5070893;28;20024;-72
2022/06/26 06:45:18;;;;;;;2.88;1.40;;;;;;;;;;5070713;28;20183;-72
2022/06/26 06:47:44;;;;;;;3.60;1.30;;;;;;;;;;5070917;28;20052;-72
2022/06/26 06:50:10;;;;;;;5.63;1.50;;;;;;;;;;5032033;28;1173014;-71
2022/06/26 06:52:35;;;;;;;4.38;2.05;;;;;;;;;;5071408;28;20115;-73
2022/06/26 06:55:01;;;;;;;5.32;1.90;;;;;;;;;;5073697;28;20079;-71
2022/06/26 06:57:27;;;;;;;6.18;1.88;;;;;;;;;;5076025;28;20476;-71
2022/06/26 06:59:52;;;;;;;5.40;1.55;;;;;;;;;;5058396;28;20036;-72
2022/06/26 07:02:18;;;;;;;3.53;1.40;;;;;;;;;;5076483;28;20073;-71
2022/06/26 07:04:43;;;;;;;2.67;1.25;;;;;;;;;;5076413;28;20500;-71
2022/06/26 07:07:09;;;;;;;4.65;1.60;;;;;;;;;;5076197;28;20017;-70
2022/06/26 07:09:34;;;;;;;5.65;1.63;;;;;;;;;;5074712;28;20017;-71
2022/06/26 07:11:59;;;;;;;3.15;1.80;;;;;;;;;;5075779;28;20539;-71
2022/06/26 07:14:25;;;;;;;5.15;1.80;;;;;;;;;;5076194;28;20033;-72
2022/06/26 07:16:50;;;;;;;4.40;1.70;;;;;;;;;;5072947;28;20021;-72
2022/06/26 07:19:16;;;;;;;5.88;1.80;;;;;;;;;;5069768;28;20111;-71
2022/06/26 07:21:43;;;;;;;4.32;1.80;;;;;;;;;;5052727;28;20029;-71
2022/06/26 07:24:10;;;;;;;5.43;1.70;;;;;;;;;;5070781;28;20056;-71
2022/06/26 07:26:36;;;;;;;3.70;1.60;;;;;;;;;;5071046;28;20040;-72
2022/06/26 07:29:02;;;;;;;3.75;1.60;;;;;;;;;;5070584;28;20044;-71
2022/06/26 07:31:27;;;;;;;2.67;1.55;;;;;;;;;;5070559;28;20059;-71
2022/06/26 07:36:36;;;;;;;2.88;1.50;;;;;;;;;;5070008;28;20059;-72
2022/06/26 07:39:03;;;;;;;3.05;1.52;;;;;;;;;;5070213;28;20625;-72
2022/06/26 07:41:28;;;;;;;2.95;1.40;;;;;;;;;;5070357;28;20038;-71
2022/06/26 07:43:54;;;;;;;6.35;1.70;;;;;;;;;;5070413;28;20024;-72
2022/06/26 07:46:20;;;;;;;3.78;1.50;;;;;;;;;;5070290;28;20408;-71
2022/06/26 07:48:45;;;;;;;4.55;1.63;;;;;;;;;;5070120;28;20048;-74
2022/06/26 07:51:11;;;;;;;3.80;1.60;;;;;;;;;;5069716;28;20099;-70
2022/06/26 07:53:37;;;;;;;4.55;1.50;;;;;;;;;;5070229;28;20028;-72
2022/06/26 07:56:03;;;;;;;4.80;1.42;;;;;;;;;;5069808;28;20028;-71
2022/06/26 07:58:29;;;;;;;3.85;1.58;;;;;;;;;;5069929;28;20043;-75
2022/06/26 08:00:54;;;;;;;4.40;1.73;;;;;;;;;;5069780;28;20024;-71
2022/06/26 08:03:20;;;;;;;3.15;1.70;;;;;;;;;;5070307;28;20116;-70
2022/06/26 08:05:46;;;;;;;3.80;1.83;;;;;;;;;;5069616;28;20077;-75
2022/06/26 08:08:12;;;;;;;4.05;1.70;;;;;;;;;;5069830;28;20052;-74
2022/06/26 08:10:38;;;;;;;3.63;1.60;;;;;;;;;;5069961;28;20104;-75
2022/06/26 08:13:05;;;;;;;2.97;1.70;;;;;;;;;;5070074;28;20055;-76
2022/06/26 08:15:31;;;;;;;5.90;1.77;;;;;;;;;;5051843;28;20029;-77
2022/06/26 08:17:57;;;;;;;4.82;1.80;;;;;;;;;;5069844;28;20402;-77
2022/06/26 08:20:22;;;;;;;3.40;1.70;;;;;;;;;;5069657;28;20031;-76
2022/06/26 08:22:48;;;;;;;3.38;1.70;;;;;;;;;;5069654;28;20032;-76
2022/06/26 08:25:13;;;;;;;2.88;1.63;;;;;;;;;;5073530;28;20028;-76
2022/06/26 08:27:39;;;;;;;3.08;1.60;;;;;;;;;;5090236;28;20032;-76
2022/06/26 08:30:05;;;;;;;4.03;1.80;;;;;;;;;;5089529;28;20020;-76
2022/06/26 08:32:31;;;;;;;3.05;1.63;;;;;;;;;;5089911;28;20052;-81
2022/06/26 08:34:57;;;;;;;3.85;1.80;;;;;;;;;;5089882;28;20448;-75
2022/06/26 08:37:22;;;;;;;11.50;1.98;;;;;;;;;;5089581;28;20016;-73
2022/06/26 08:39:47;;;;;;;3.38;1.60;;;;;;;;;;5089651;28;20500;-77
2022/06/26 08:42:13;;;;;;;4.95;1.95;;;;;;;;;;5089964;28;20021;-74
2022/06/26 08:44:42;;;;;;;5.53;1.73;;;;;;;;;;5090149;28;20048;-75
2022/06/26 08:47:09;;;;;;;3.83;1.80;;;;;;;;;;5089523;28;20045;-72
2022/06/26 08:49:35;;;;;;;2.58;1.48;;;;;;;;;;5089462;28;20146;-72
2022/06/26 08:52:01;;;;;;;6.60;1.77;;;;;;;;;;5089066;28;20407;-72
2022/06/26 08:54:28;;;;;;;3.28;2.00;;;;;;;;;;5089629;28;20039;-72
2022/06/26 08:56:55;;;;;;;4.95;2.00;;;;;;;;;;5089635;28;20477;-71
2022/06/26 08:59:20;;;;;;;4.03;1.90;;;;;;;;;;5071279;28;20403;-72
2022/06/26 09:01:46;;;;;;;3.88;1.88;;;;;;;;;;5089677;28;20472;-71
2022/06/26 09:04:13;;;;;;;4.78;1.75;;;;;;;;;;5089697;28;20028;-73
2022/06/26 09:06:40;;;;;;;3.75;1.92;;;;;;;;;;5088974;28;20063;-74
2022/06/26 09:09:22;;;;;;;6.05;1.90;;;;;;;;;;5088367;28;20035;-71
2022/06/26 09:11:49;;;;;;;5.30;1.70;;;;;;;;;;5078717;28;20036;-70
2022/06/26 09:14:15;;;;;;;4.40;1.60;;;;;;;;;;5080841;28;20050;-71
2022/06/26 09:16:47;;;;;;;2.83;1.90;;;;;;;;;;5070317;28;20036;-70
2022/06/26 09:19:16;;;;;;;3.53;1.50;;;;;;;;;;5085676;28;20028;-71
2022/06/26 09:21:43;;;;;;;5.32;1.52;;;;;;;;;;5077245;28;20058;-71
2022/06/26 09:24:17;;;;;;;3.35;1.70;;;;;;;;;;5085152;28;20393;-71
2022/06/26 09:26:43;;;;;;;2.95;1.80;;;;;;;;;;5069144;28;20052;-72
2022/06/26 09:29:18;;;;;;;4.25;1.65;;;;;;;;;;5073161;28;20067;-74
2022/06/26 09:31:44;;;;;;;3.35;1.60;;;;;;;;;;5089041;28;20081;-73
2022/06/26 09:34:24;;;;;;;2.30;1.50;;;;;;;;;;5089286;28;20055;-72
2022/06/26 09:37:01;;;;;;;3.28;1.65;;;;;;;;;;5088958;28;20031;-71
2022/06/26 09:39:27;;;;;;;3.22;1.70;;;;;;;;;;5069647;28;20036;-73
2022/06/26 09:41:52;;;;;;;2.50;1.50;;;;;;;;;;5069483;28;20074;-73
2022/06/26 09:44:19;;;;;;;3.15;1.60;;;;;;;;;;5072553;28;20481;-72
2022/06/26 09:46:44;;;;;;;3.53;1.50;;;;;;;;;;5072013;28;20028;-72
2022/06/26 09:49:10;;;;;;;3.42;1.63;;;;;;;;;;5072230;28;20047;-74
2022/06/26 09:51:37;;;;;;;3.05;1.50;;;;;;;;;;5072196;28;20107;-72
2022/06/26 09:54:04;;;;;;;2.60;1.52;;;;;;;;;;5072547;28;20066;-75
2022/06/26 09:56:30;;;;;;;3.97;1.60;;;;;;;;;;5072481;28;20553;-75
2022/06/26 09:58:58;;;;;;;2.88;1.58;;;;;;;;;;5072547;28;20174;-73
2022/06/26 10:06:56;;;;;;;2.53;1.38;;;;;;;;;;5071965;28;20040;-73
2022/06/26 10:09:22;;;;;;;2.97;1.63;;;;;;;;;;5072253;28;20036;-72
2022/06/26 10:11:48;;;;;;;3.80;1.50;;;;;;;;;;5072120;28;20029;-72
2022/06/26 10:14:19;;;;;;;3.58;1.88;;;;;;;;;;5072456;28;20024;-71
2022/06/26 10:16:47;;;;;;;4.32;1.58;;;;;;;;;;5071937;28;20107;-73
2022/06/26 10:19:36;;;;;;;2.83;1.48;;;;;;;;;;5054123;28;20033;-73
2022/06/26 10:22:02;;;;;;;3.78;1.60;;;;;;;;;;5071581;28;20085;-73
2022/06/26 10:24:28;;;;;;;6.97;1.65;;;;;;;;;;5071937;28;20032;-75
2022/06/26 10:26:58;;;;;;;3.50;1.65;;;;;;;;;;5071742;28;20111;-75
2022/06/26 10:29:33;;;;;;;;;;;;;;;;;;5072206;28;20115;-73
2022/06/26 10:31:59;;;;;;;3.08;1.58;;;;;;;;;;5071705;28;20053;-73
2022/06/26 10:34:25;;;;;;;3.42;1.48;;;;;;;;;;5071768;28;20552;-72
2022/06/26 10:37:02;;;;;;;6.82;1.60;;;;;;;;;;5071211;28;20056;-73
2022/06/26 10:39:43;;;;;;;10.50;2.30;;;;;;;;;;5071492;28;20101;-74
2022/06/26 10:45:09;;;;;;;5.22;1.92;;;;;;;;;;5071804;28;20101;-72
2022/06/26 10:47:42;;;;;;;2.42;1.40;;;;;;;;;;5071560;28;20016;-73
2022/06/26 10:50:34;;;;;;;2.47;1.40;;;;;;;;;;5071280;28;20642;-74
2022/06/26 10:53:18;;;;;;;3.47;1.60;;;;;;;;;;5070136;28;20028;-74
2022/06/26 10:55:48;;;;;;;5.30;1.48;;;;;;;;;;5071626;28;20033;-75
2022/06/26 10:58:23;;;;;;;3.63;1.40;;;;;;;;;;5053176;28;20040;-75
2022/06/26 11:00:49;;;;;;;2.60;1.33;;;;;;;;;;5071138;28;20033;-76
2022/06/26 11:03:16;;;;;;;13.38;1.70;;;;;;;;;;5071174;28;20027;-72
2022/06/26 11:05:55;;;;;;;2.97;1.50;;;;;;;;;;5070817;28;20048;-77
2022/06/26 11:08:32;;;;;;;3.08;1.48;;;;;;;;;;5071285;28;20032;-74
2022/06/26 11:11:03;;;;;;;3.70;1.50;;;;;;;;;;5071290;28;20024;-75
2022/06/26 11:13:29;;;;;;;2.42;1.58;;;;;;;;;;5071002;28;20028;-73
2022/06/26 11:15:54;;;;;;;3.28;1.55;;;;;;;;;;5071063;28;20047;-73
2022/06/26 11:18:19;;;;;;;2.38;1.45;;;;;;;;;;5070681;28;20028;-72
2022/06/26 11:20:51;;;;;;;4.32;1.67;;;;;;;;;;5070216;28;20143;-73
2022/06/26 11:23:18;;;;;;;4.10;1.77;;;;;;;;;;5070561;28;20499;-72
2022/06/26 11:25:45;;;;;;;3.40;1.70;;;;;;;;;;5070774;28;20472;-76
2022/06/26 11:28:12;;;;;;;4.85;1.50;;;;;;;;;;5070577;28;20040;-77
2022/06/26 11:30:41;;;;;;;3.70;1.60;;;;;;;;;;5070807;28;20036;-73
2022/06/26 11:33:08;;;;;;;3.05;1.88;;;;;;;;;;5070473;28;20408;-76
2022/06/26 11:35:34;;;;;;;5.50;1.70;;;;;;;;;;5070240;28;20025;-73
2022/06/26 11:38:14;;;;;;;2.35;1.55;;;;;;;;;;5070548;28;20036;-73
2022/06/26 11:40:41;;;;;;;2.17;1.30;;;;;;;;;;5070289;28;20425;-72
2022/06/26 11:43:07;;;;;;;2.22;1.50;;;;;;;;;;5070151;28;20827;-74
2022/06/26 11:45:33;;;;;;;4.13;1.48;;;;;;;;;;5070472;28;20032;-72
2022/06/26 11:48:00;;;;;;;5.22;1.58;;;;;;;;;;5070287;28;20029;-75
2022/06/26 11:50:32;;;;;;;2.80;1.42;;;;;;;;;;5069844;28;20385;-75
2022/06/26 11:52:58;;;;;;;2.33;1.20;;;;;;;;;;5070191;28;20055;-72
2022/06/26 11:55:25;;;;;;;2.50;1.30;;;;;;;;;;5070156;28;20021;-74
2022/06/26 11:57:51;;;;;;;3.38;1.67;;;;;;;;;;5069840;28;20017;-71
2022/06/26 12:00:18;;;;;;;3.03;1.45;;;;;;;;;;5070018;28;20103;-71
2022/06/26 12:02:46;;;;;;;3.15;1.58;;;;;;;;;;5069931;28;20046;-74
2022/06/26 12:05:12;;;;;;;2.17;1.30;;;;;;;;;;5069778;28;20064;-73
2022/06/26 12:07:44;;;;;;;4.63;1.55;;;;;;;;;;5069732;28;20051;-71
2022/06/26 12:10:10;;;;;;;3.08;1.50;;;;;;;;;;5069950;28;20522;-71
2022/06/26 12:12:35;;;;;;;2.70;1.50;;;;;;;;;;5069875;28;20085;-72
2022/06/26 12:15:01;;;;;;;4.82;1.25;;;;;;;;;;5070049;28;20418;-71
2022/06/26 12:17:28;;;;;;;4.32;1.58;;;;;;;;;;5069619;28;20021;-72
2022/06/26 12:20:03;;;;;;;2.50;1.30;;;;;;;;;;5069889;28;20021;-71
2022/06/26 12:22:33;;;;;;;3.78;1.42;;;;;;;;;;5069383;28;20028;-72
2022/06/26 12:24:59;;;;;;;3.10;1.00;;;;;;;;;;5070009;28;20025;-72
2022/06/26 12:27:39;;;;;;;3.00;1.27;;;;;;;;;;5069767;28;20039;-72
2022/06/26 12:30:18;;;;;;;2.40;1.30;;;;;;;;;;5051815;28;20067;-71
2022/06/26 12:32:44;;;;;;;3.60;1.45;;;;;;;;;;5069481;28;20423;-72
2022/06/26 12:35:09;;;;;;;2.20;1.25;;;;;;;;;;5069708;28;20480;-71
2022/06/26 12:37:35;;;;;;;3.65;1.33;;;;;;;;;;5069023;28;20166;-71
2022/06/26 12:40:00;;;;;;;2.47;1.15;;;;;;;;;;5069157;28;20024;-74
2022/06/26 12:42:26;;;;;;;1.50;1.13;;;;;;;;;;5073869;28;20017;-75
2022/06/26 12:44:51;;;;;;;3.00;1.30;;;;;;;;;;5068118;28;20117;-76
2022/06/26 12:47:16;;;;;;;4.60;1.50;;;;;;;;;;5067877;28;20066;-76
2022/06/26 12:49:42;;;;;;;6.20;1.52;;;;;;;;;;5068894;28;20448;-71
2022/06/26 12:52:07;;;;;;;4.00;1.70;;;;;;;;;;5068977;28;20021;-74
2022/06/26 12:54:33;;;;;;;4.90;1.88;;;;;;;;;;5069049;28;20019;-74
2022/06/26 12:56:58;;;;;;;4.78;1.70;;;;;;;;;;5069359;28;20025;-76
2022/06/26 12:59:24;;;;;;;2.85;1.85;;;;;;;;;;5069207;28;20411;-70
2022/06/26 13:01:49;;;;;;;4.28;1.85;;;;;;;;;;5069502;28;20542;-72
2022/06/26 13:04:15;;;;;;;4.53;1.77;;;;;;;;;;5067802;28;20082;-73
2022/06/26 13:06:40;;;;;;;4.32;1.95;;;;;;;;;;5071053;28;20040;-72
2022/06/26 13:09:06;;;;;;;3.17;1.73;;;;;;;;;;5068567;28;20108;-74
2022/06/26 13:11:32;;;;;;;6.25;1.70;;;;;;;;;;5067324;28;20495;-74
2022/06/26 13:13:57;;;;;;;5.57;1.80;;;;;;;;;;5068716;28;20021;-76
2022/06/26 13:16:23;;;;;;;3.17;1.77;;;;;;;;;;5069856;28;20016;-71
2022/06/26 13:18:48;;;;;;;3.70;1.85;;;;;;;;;;5072870;28;20035;-71
2022/06/26 13:21:14;;;;;;;6.22;2.00;;;;;;;;;;5073022;28;20050;-71
2022/06/26 13:23:39;;;;;;;4.68;1.90;;;;;;;;;;5073251;28;20024;-71
2022/06/26 13:26:05;;;;;;;4.15;1.88;;;;;;;;;;5073081;28;20013;-71
2022/06/26 13:28:30;;;;;;;4.82;1.73;;;;;;;;;;5072879;28;20020;-71
2022/06/26 13:30:56;;;;;;;2.60;1.60;;;;;;;;;;5073002;28;20028;-70
2022/06/26 13:33:22;;;;;;;3.25;1.80;;;;;;;;;;5072458;28;20032;-70
2022/06/26 13:35:48;;;;;;;4.65;1.83;;;;;;;;;;5072485;28;20117;-72
2022/06/26 13:38:13;;;;;;;3.80;2.00;;;;;;;;;;5072712;28;20610;-70
2022/06/26 13:40:39;;;;;;;3.92;1.65;;;;;;;;;;5072567;28;20111;-70
2022/06/26 13:43:04;;;;;;;3.33;1.77;;;;;;;;;;5072658;28;20545;-70
2022/06/26 13:45:29;;;;;;;3.67;1.70;;;;;;;;;;5072667;28;20024;-70
2022/06/26 13:47:55;;;;;;;3.30;1.60;;;;;;;;;;5072698;28;20024;-70
2022/06/26 13:50:21;;;;;;;3.17;1.50;;;;;;;;;;5087461;28;20052;-72
2022/06/26 13:52:46;;;;;;;3.55;1.20;;;;;;;;;;5092526;28;20020;-71
2022/06/26 13:55:12;;;;;;;3.92;1.42;;;;;;;;;;5092599;28;20107;-70
2022/06/26 13:57:37;;;;;;;4.00;1.40;;;;;;;;;;5092813;28;20468;-70
2022/06/26 14:00:05;;;;;;;5.05;1.50;;;;;;;;;;5092464;28;20028;-70
2022/06/26 14:02:31;;;;;;;3.85;1.50;;;;;;;;;;5091117;28;20111;-71
2022/06/26 14:04:56;;;;;;;2.10;1.60;;;;;;;;;;5092381;28;20099;-70
2022/06/26 14:07:21;;;;;;;3.60;1.40;;;;;;;;;;5091091;28;20145;-71
2022/06/26 14:09:47;;;;;;;2.28;1.40;;;;;;;;;;5092472;28;20013;-71
2022/06/26 14:12:12;;;;;;;2.53;1.40;;;;;;;;;;5092375;28;20241;-71
2022/06/26 14:14:38;;;;;;;3.40;1.67;;;;;;;;;;5092141;28;20031;-73
2022/06/26 14:17:04;;;;;;;2.35;1.10;;;;;;;;;;5092307;28;20020;-70
2022/06/26 14:19:29;;;;;;;3.67;1.40;;;;;;;;;;5092273;28;20024;-74
2022/06/26 14:27:37;;;;;;;3.58;1.40;;;;;;;;;;5091951;28;20632;-71
2022/06/26 14:30:04;;;;;;;3.13;1.45;;;;;;;;;;5091896;28;20024;-71
2022/06/26 14:32:30;;;;;;;5.53;1.63;;;;;;;;;;5091984;28;20059;-72
2022/06/26 14:34:55;;;;;;;1.80;1.20;;;;;;;;;;5091804;28;20633;-71
2022/06/26 14:37:21;;;;;;;3.67;1.70;;;;;;;;;;5091601;28;20107;-71
2022/06/26 14:39:46;;;;;;;3.58;1.63;;;;;;;;;;5092027;28;20020;-72
2022/06/26 14:42:11;;;;;;;6.40;1.85;;;;;;;;;;5091954;28;20058;-71
2022/06/26 14:44:38;;;;;;;5.65;1.75;;;;;;;;;;5091964;28;20388;-71
2022/06/26 14:47:04;;;;;;;3.38;1.50;;;;;;;;;;5092013;28;20064;-75
2022/06/26 14:49:29;;;;;;;2.97;1.38;;;;;;;;;;5080107;28;20102;-72
2022/06/26 14:51:55;;;;;;;2.58;1.52;;;;;;;;;;5070740;28;20021;-76
2022/06/26 14:54:21;;;;;;;2.70;1.40;;;;;;;;;;5053079;28;20024;-72
2022/06/26 14:56:46;;;;;;;5.05;1.40;;;;;;;;;;5053580;28;20128;-71
2022/06/26 14:59:12;;;;;;;3.85;1.55;;;;;;;;;;5071259;28;20033;-72
2022/06/26 15:01:38;;;;;;;3.20;1.40;;;;;;;;;;5071486;28;20607;-72